createdAt,value
2023-05-05T00:00:49.362Z,101115.44
2023-05-05T00:01:53.064Z,101110.03
2023-05-05T00:02:56.912Z,101103.97
2023-05-05T00:04:00.568Z,101106.69
2023-05-05T00:05:04.936Z,101110.44
2023-05-05T00:06:08.593Z,101105.00
2023-05-05T00:07:12.028Z,101104.59
2023-05-05T00:08:15.692Z,101101.69
2023-05-05T00:09:19.739Z,101107.97
2023-05-05T00:10:23.514Z,101101.03
2023-05-05T00:11:27.306Z,101101.25
2023-05-05T00:12:31.153Z,101102.47
2023-05-05T00:13:34.157Z,101097.06
2023-05-05T00:14:37.531Z,101101.63
2023-05-05T00:15:43.179Z,101103.31
2023-05-05T00:16:46.594Z,101098.75
2023-05-05T00:17:50.377Z,101096.22
2023-05-05T00:18:54.467Z,101092.88
2023-05-05T00:19:57.849Z,101094.75
2023-05-05T00:21:00.988Z,101095.97
2023-05-05T00:22:04.434Z,101097.22
2023-05-05T00:23:07.972Z,101091.97
2023-05-05T00:24:12.439Z,101095.72
2023-05-05T00:25:15.994Z,101092.16
2023-05-05T00:26:19.219Z,101095.72
2023-05-05T00:27:26.877Z,101095.28
2023-05-05T00:28:30.704Z,101094.44
2023-05-05T00:29:34.685Z,101102.38
2023-05-05T00:30:38.653Z,101096.13
2023-05-05T00:31:42.173Z,101099.84
2023-05-05T00:32:48.677Z,101095.09
2023-05-05T00:33:52.297Z,101099.00
2023-05-05T00:34:56.713Z,101090.88
2023-05-05T00:36:00.466Z,101093.16
2023-05-05T00:37:04.636Z,101088.56
2023-05-05T00:38:08.667Z,101092.09
2023-05-05T00:39:11.863Z,101096.06
2023-05-05T00:40:16.841Z,101094.38
2023-05-05T00:41:21.271Z,101090.19
2023-05-05T00:42:24.974Z,101099.34
2023-05-05T00:43:28.931Z,101088.03
2023-05-05T00:44:42.366Z,101092.34
2023-05-05T00:45:48.878Z,101084.78
2023-05-05T00:46:52.813Z,101088.75
2023-05-05T00:47:57.546Z,101085.38
2023-05-05T00:49:01.371Z,101090.13
2023-05-05T00:50:07.093Z,101087.81
2023-05-05T00:51:10.931Z,101080.72
2023-05-05T00:52:13.912Z,101083.00
2023-05-05T00:53:17.696Z,101083.16
2023-05-05T00:54:21.260Z,101084.41
2023-05-05T00:55:25.217Z,101084.78
2023-05-05T00:56:28.441Z,101078.72
2023-05-05T00:57:32.839Z,101076.38
2023-05-05T00:58:37.022Z,101087.06
2023-05-05T00:59:40.503Z,101081.81
2023-05-05T01:00:43.736Z,101077.91
2023-05-05T01:01:47.512Z,101077.22
2023-05-05T01:02:51.714Z,101081.63
2023-05-05T01:03:56.003Z,101079.75
2023-05-05T01:04:59.106Z,101079.94
2023-05-05T01:06:18.752Z,101080.97
2023-05-05T01:07:27.225Z,101077.22
2023-05-05T01:08:37.670Z,101075.19
2023-05-05T01:10:18.813Z,101080.22
2023-05-05T01:11:27.944Z,101081.88
2023-05-05T01:12:52.329Z,101082.50
2023-05-05T01:14:24.804Z,101082.31
2023-05-05T01:15:57.372Z,101080.66
2023-05-05T01:17:11.055Z,101068.97
2023-05-05T01:18:47.938Z,101078.78
2023-05-05T01:19:59.698Z,101078.16
2023-05-05T01:21:28.068Z,101072.72
2023-05-05T01:22:39.810Z,101067.31
2023-05-05T01:24:15.057Z,101066.47
2023-05-05T01:25:43.023Z,101062.91
2023-05-05T01:27:05.601Z,101060.38
2023-05-05T01:28:25.518Z,101055.16
2023-05-05T01:29:31.615Z,101061.63
2023-05-05T01:31:10.699Z,101063.03
2023-05-05T01:32:16.530Z,101056.13
2023-05-05T01:33:23.861Z,101054.63
2023-05-05T01:34:29.224Z,101053.78
2023-05-05T01:35:42.921Z,101050.91
2023-05-05T01:36:47.444Z,101053.59
2023-05-05T01:38:10.190Z,101056.50
2023-05-05T01:39:16.716Z,101043.44
2023-05-05T01:40:26.937Z,101050.31
2023-05-05T01:41:50.554Z,101034.28
2023-05-05T01:42:54.551Z,101045.09
2023-05-05T01:43:58.090Z,101050.13
2023-05-05T01:45:01.407Z,101046.75
2023-05-05T01:46:04.976Z,101043.22
2023-05-05T01:47:08.669Z,101040.91
2023-05-05T01:48:13.459Z,101042.94
2023-05-05T01:49:18.585Z,101044.00
2023-05-05T01:50:22.017Z,101039.63
2023-05-05T01:51:25.290Z,101039.63
2023-05-05T01:52:28.408Z,101031.66
2023-05-05T01:53:32.238Z,101043.53
2023-05-05T01:54:36.222Z,101037.50
2023-05-05T01:55:40.059Z,101029.72
2023-05-05T01:56:43.292Z,101039.53
2023-05-05T01:57:46.834Z,101030.75
2023-05-05T01:58:50.135Z,101030.97
2023-05-05T01:59:53.088Z,101027.59
2023-05-05T02:00:56.351Z,101034.44
2023-05-05T02:02:00.626Z,101032.31
2023-05-05T02:03:07.178Z,101029.31
2023-05-05T02:04:10.354Z,101028.03
2023-05-05T02:05:13.787Z,101026.34
2023-05-05T02:06:18.014Z,101030.09
2023-05-05T02:07:21.782Z,101024.03
2023-05-05T02:08:25.268Z,101025.06
2023-05-05T02:09:29.189Z,101022.16
2023-05-05T02:10:33.027Z,101024.69
2023-05-05T02:11:36.551Z,101015.31
2023-05-05T02:12:40.862Z,101017.19
2023-05-05T02:13:44.828Z,101023.63
2023-05-05T02:14:52.003Z,101013.84
2023-05-05T02:15:55.967Z,101015.06
2023-05-05T02:17:00.008Z,101017.94
2023-05-05T02:18:03.830Z,101015.47
2023-05-05T02:19:06.629Z,101018.16
2023-05-05T02:20:14.260Z,101021.72
2023-05-05T02:21:18.643Z,101011.69
2023-05-05T02:22:22.430Z,101026.91
2023-05-05T02:23:26.340Z,101021.72
2023-05-05T02:24:30.527Z,101021.72
2023-05-05T02:25:38.301Z,101017.94
2023-05-05T02:26:42.295Z,101016.94
2023-05-05T02:27:47.422Z,101012.16
2023-05-05T02:28:58.116Z,101020.28
2023-05-05T02:30:02.812Z,101019.63
2023-05-05T02:31:06.801Z,101015.91
2023-05-05T02:32:18.473Z,101020.66
2023-05-05T02:33:22.462Z,101014.22
2023-05-05T02:34:27.860Z,101012.53
2023-05-05T02:35:35.680Z,101013.78
2023-05-05T02:36:41.415Z,101013.38
2023-05-05T02:37:47.474Z,101016.94
2023-05-05T02:38:56.330Z,101012.53
2023-05-05T02:40:03.853Z,101008.34
2023-05-05T02:41:12.013Z,101009.56
2023-05-05T02:42:17.945Z,101011.63
2023-05-05T02:43:23.250Z,101006.22
2023-05-05T02:44:28.082Z,101013.28
2023-05-05T02:45:32.204Z,101016.66
2023-05-05T02:46:38.667Z,101008.94
2023-05-05T02:47:41.932Z,101012.84
2023-05-05T02:48:45.827Z,101003.25
2023-05-05T02:49:49.060Z,101007.16
2023-05-05T02:50:52.284Z,101006.50
2023-05-05T02:52:02.670Z,101005.03
2023-05-05T02:53:10.826Z,101011.47
2023-05-05T02:54:14.676Z,101007.28
2023-05-05T02:55:18.282Z,101011.03
2023-05-05T02:56:52.398Z,101016.88
2023-05-05T02:58:09.687Z,101016.50
2023-05-05T02:59:23.249Z,101012.41
2023-05-05T03:00:54.676Z,101011.81
2023-05-05T03:02:11.832Z,101013.28
2023-05-05T03:03:37.739Z,101011.25
2023-05-05T03:04:55.522Z,101014.63
2023-05-05T03:06:22.337Z,101013.38
2023-05-05T03:07:31.577Z,101010.50
2023-05-05T03:08:55.733Z,101010.31
2023-05-05T03:10:11.313Z,101007.19
2023-05-05T03:11:30.450Z,101011.78
2023-05-05T03:12:54.118Z,101006.84
2023-05-05T03:14:22.050Z,101009.72
2023-05-05T03:15:31.699Z,101004.31
2023-05-05T03:16:37.661Z,101009.53
2023-05-05T03:17:42.259Z,101009.31
2023-05-05T03:18:46.157Z,101010.81
2023-05-05T03:19:49.583Z,101010.66
2023-05-05T03:20:53.705Z,101008.97
2023-05-05T03:21:58.143Z,101004.38
2023-05-05T03:23:04.682Z,101006.88
2023-05-05T03:24:19.335Z,101006.03
2023-05-05T03:25:46.462Z,101006.88
2023-05-05T03:27:09.825Z,101001.47
2023-05-05T03:28:16.484Z,100998.75
2023-05-05T03:29:20.150Z,100996.88
2023-05-05T03:30:23.966Z,100991.69
2023-05-05T03:31:29.311Z,100996.44
2023-05-05T03:32:35.342Z,101001.03
2023-05-05T03:33:38.697Z,101001.84
2023-05-05T03:34:42.081Z,100994.56
2023-05-05T03:35:45.600Z,100999.59
2023-05-05T03:36:50.245Z,100994.00
2023-05-05T03:37:53.978Z,100999.41
2023-05-05T03:38:57.030Z,100990.25
2023-05-05T03:40:02.308Z,100993.59
2023-05-05T03:41:07.045Z,100985.28
2023-05-05T03:42:10.114Z,100989.50
2023-05-05T03:43:13.780Z,100985.75
2023-05-05T03:44:17.616Z,100988.72
2023-05-05T03:45:21.404Z,100987.66
2023-05-05T03:46:24.754Z,100984.09
2023-05-05T03:47:28.613Z,100983.31
2023-05-05T03:48:34.829Z,100985.78
2023-05-05T03:49:39.275Z,100987.41
2023-05-05T03:50:43.341Z,100986.53
2023-05-05T03:51:48.440Z,100991.69
2023-05-05T03:52:52.033Z,100994.31
2023-05-05T03:53:55.592Z,100992.19
2023-05-05T03:55:01.001Z,100992.56
2023-05-05T03:56:05.129Z,100983.81
2023-05-05T03:57:08.954Z,100992.56
2023-05-05T03:58:12.999Z,100986.50
2023-05-05T03:59:16.437Z,100981.28
2023-05-05T04:00:20.154Z,100982.47
2023-05-05T04:01:24.431Z,100988.13
2023-05-05T04:02:28.497Z,100977.47
2023-05-05T04:03:32.551Z,100976.97
2023-05-05T04:04:36.465Z,100976.19
2023-05-05T04:05:40.141Z,100972.81
2023-05-05T04:06:43.606Z,100965.72
2023-05-05T04:07:47.180Z,100971.97
2023-05-05T04:08:51.505Z,100961.31
2023-05-05T04:09:54.525Z,100964.44
2023-05-05T04:10:58.203Z,100965.44
2023-05-05T04:12:02.546Z,100964.59
2023-05-05T04:13:06.046Z,100966.09
2023-05-05T04:14:09.285Z,100960.03
2023-05-05T04:15:13.554Z,100961.28
2023-05-05T04:16:17.375Z,100963.31
2023-05-05T04:17:21.096Z,100964.34
2023-05-05T04:18:25.223Z,100958.06
2023-05-05T04:19:28.632Z,100960.75
2023-05-05T04:20:31.774Z,100955.53
2023-05-05T04:21:35.764Z,100958.44
2023-05-05T04:22:39.798Z,100956.59
2023-05-05T04:23:43.883Z,100957.78
2023-05-05T04:24:48.147Z,100956.75
2023-05-05T04:25:51.762Z,100958.44
2023-05-05T04:26:55.997Z,100965.53
2023-05-05T04:27:59.337Z,100951.78
2023-05-05T04:29:02.737Z,100958.06
2023-05-05T04:30:06.517Z,100965.19
2023-05-05T04:31:11.534Z,100956.38
2023-05-05T04:32:18.507Z,100960.75
2023-05-05T04:33:22.008Z,100955.53
2023-05-05T04:34:26.348Z,100956.38
2023-05-05T04:35:29.754Z,100950.94
2023-05-05T04:36:33.569Z,100958.06
2023-05-05T04:37:36.969Z,100960.13
2023-05-05T04:38:40.181Z,100953.50
2023-05-05T04:39:43.770Z,100956.88
2023-05-05T04:40:47.275Z,100946.91
2023-05-05T04:41:50.695Z,100953.50
2023-05-05T04:42:54.179Z,100950.81
2023-05-05T04:43:57.454Z,100945.53
2023-05-05T04:45:01.332Z,100952.63
2023-05-05T04:46:06.668Z,100951.47
2023-05-05T04:47:14.493Z,100956.88
2023-05-05T04:48:21.636Z,100952.09
2023-05-05T04:49:25.188Z,100960.69
2023-05-05T04:50:28.228Z,100953.59
2023-05-05T04:51:32.866Z,100952.75
2023-05-05T04:52:36.324Z,100953.41
2023-05-05T04:53:40.079Z,100951.50
2023-05-05T04:54:43.706Z,100955.06
2023-05-05T04:55:47.159Z,100949.03
2023-05-05T04:56:50.043Z,100949.38
2023-05-05T04:57:53.767Z,100950.63
2023-05-05T04:58:57.584Z,100945.22
2023-05-05T05:00:02.497Z,100953.34
2023-05-05T05:01:06.547Z,100947.06
2023-05-05T05:02:10.092Z,100946.91
2023-05-05T05:03:13.272Z,100953.34
2023-05-05T05:04:19.404Z,100950.63
2023-05-05T05:05:23.262Z,100950.63
2023-05-05T05:06:26.366Z,100948.53
2023-05-05T05:07:30.390Z,100950.63
2023-05-05T05:08:34.111Z,100948.94
2023-05-05T05:09:37.420Z,100955.19
2023-05-05T05:10:40.862Z,100951.66
2023-05-05T05:11:44.395Z,100946.22
2023-05-05T05:12:49.173Z,100952.63
2023-05-05T05:13:52.293Z,100956.38
2023-05-05T05:14:55.897Z,100954.91
2023-05-05T05:15:59.436Z,100949.66
2023-05-05T05:17:02.882Z,100957.13
2023-05-05T05:18:06.082Z,100961.72
2023-05-05T05:19:09.604Z,100950.25
2023-05-05T05:20:12.978Z,100952.09
2023-05-05T05:21:16.381Z,100950.81
2023-05-05T05:22:20.621Z,100950.16
2023-05-05T05:23:24.380Z,100949.13
2023-05-05T05:24:28.048Z,100953.03
2023-05-05T05:25:31.758Z,100949.88
2023-05-05T05:26:34.832Z,100954.47
2023-05-05T05:27:38.994Z,100961.09
2023-05-05T05:28:43.118Z,100951.50
2023-05-05T05:29:46.308Z,100953.06
2023-05-05T05:30:49.889Z,100953.47
2023-05-05T05:31:53.222Z,100946.72
2023-05-05T05:32:57.048Z,100949.66
2023-05-05T05:34:01.116Z,100953.38
2023-05-05T05:35:05.880Z,100960.47
2023-05-05T05:36:11.147Z,100956.25
2023-05-05T05:37:14.073Z,100957.41
2023-05-05T05:38:18.125Z,100958.16
2023-05-05T05:39:22.890Z,100957.69
2023-05-05T05:40:27.125Z,100959.06
2023-05-05T05:41:31.900Z,100968.19
2023-05-05T05:42:35.837Z,100974.75
2023-05-05T05:43:40.077Z,100973.88
2023-05-05T05:44:44.508Z,100972.16
2023-05-05T05:45:48.348Z,100969.59
2023-05-05T05:46:52.247Z,100978.81
2023-05-05T05:47:56.187Z,100982.03
2023-05-05T05:48:59.961Z,100984.84
2023-05-05T05:50:05.951Z,100972.00
2023-05-05T05:51:10.476Z,100982.06
2023-05-05T05:52:14.298Z,100981.31
2023-05-05T05:53:18.564Z,100990.22
2023-05-05T05:54:22.152Z,100985.72
2023-05-05T05:55:25.258Z,100982.94
2023-05-05T05:56:29.705Z,100983.31
2023-05-05T05:57:33.893Z,100989.75
2023-05-05T05:58:38.491Z,100989.09
2023-05-05T05:59:41.748Z,100991.50
2023-05-05T06:00:45.709Z,100996.91
2023-05-05T06:01:49.381Z,100999.78
2023-05-05T06:02:53.515Z,100988.41
2023-05-05T06:04:00.580Z,101000.34
2023-05-05T06:05:04.122Z,100999.63
2023-05-05T06:06:08.613Z,101002.59
2023-05-05T06:07:12.030Z,100996.47
2023-05-05T06:08:15.417Z,100991.16
2023-05-05T06:09:23.633Z,100989.56
2023-05-05T06:10:28.608Z,100988.84
2023-05-05T06:11:40.012Z,100983.50
2023-05-05T06:12:43.731Z,100987.53
2023-05-05T06:13:47.049Z,100987.53
2023-05-05T06:14:50.393Z,100990.03
2023-05-05T06:15:53.827Z,100996.75
2023-05-05T06:16:57.262Z,100997.38
2023-05-05T06:18:03.110Z,100995.44
2023-05-05T06:19:11.510Z,100998.34
2023-05-05T06:20:15.087Z,100991.81
2023-05-05T06:21:21.157Z,100999.72
2023-05-05T06:22:24.626Z,101003.38
2023-05-05T06:23:28.491Z,100998.91
2023-05-05T06:24:36.993Z,101009.44
2023-05-05T06:25:40.282Z,100999.34
2023-05-05T06:26:43.509Z,101006.53
2023-05-05T06:27:47.044Z,101009.34
2023-05-05T06:28:49.989Z,101000.38
2023-05-05T06:29:53.645Z,101001.38
2023-05-05T06:30:57.524Z,101004.53
2023-05-05T06:32:01.957Z,101002.63
2023-05-05T06:33:05.525Z,101000.69
2023-05-05T06:34:09.636Z,101005.50
2023-05-05T06:35:12.929Z,101005.22
2023-05-05T06:36:17.457Z,101006.75
2023-05-05T06:37:21.478Z,101009.88
2023-05-05T06:38:25.346Z,101008.69
2023-05-05T06:39:28.432Z,101005.31
2023-05-05T06:40:32.759Z,101007.06
2023-05-05T06:41:36.529Z,101013.13
2023-05-05T06:42:40.063Z,101013.94
2023-05-05T06:43:46.405Z,101009.75
2023-05-05T06:44:50.532Z,101003.91
2023-05-05T06:45:53.454Z,101010.16
2023-05-05T06:46:57.040Z,101006.59
2023-05-05T06:48:00.824Z,101000.09
2023-05-05T06:49:04.409Z,101002.47
2023-05-05T06:50:09.803Z,101005.78
2023-05-05T06:51:13.666Z,101004.66
2023-05-05T06:52:17.143Z,101002.97
2023-05-05T06:53:20.929Z,100997.22
2023-05-05T06:54:24.419Z,101010.66
2023-05-05T06:55:27.432Z,101006.97
2023-05-05T06:56:31.343Z,101002.09
2023-05-05T06:57:34.523Z,101007.19
2023-05-05T06:58:37.846Z,101011.66
2023-05-05T06:59:41.752Z,101013.06
2023-05-05T07:00:45.828Z,101007.03
2023-05-05T07:01:49.661Z,101004.31
2023-05-05T07:02:53.135Z,101000.22
2023-05-05T07:03:57.157Z,101001.94
2023-05-05T07:05:00.952Z,101001.69
2023-05-05T07:06:04.495Z,100998.91
2023-05-05T07:07:07.870Z,101001.94
2023-05-05T07:08:11.851Z,101001.56
2023-05-05T07:09:16.471Z,100996.31
2023-05-05T07:10:21.596Z,100988.66
2023-05-05T07:11:25.425Z,100999.31
2023-05-05T07:12:34.208Z,100991.38
2023-05-05T07:13:37.703Z,100991.84
2023-05-05T07:14:41.466Z,100990.78
2023-05-05T07:15:48.287Z,100990.00
2023-05-05T07:16:51.836Z,100995.59
2023-05-05T07:17:55.665Z,100992.50
2023-05-05T07:19:01.441Z,100990.19
2023-05-05T07:20:05.244Z,100997.53
2023-05-05T07:21:08.978Z,100990.16
2023-05-05T07:22:12.225Z,100989.44
2023-05-05T07:23:15.576Z,100989.22
2023-05-05T07:24:19.104Z,100996.22
2023-05-05T07:25:22.412Z,100996.66
2023-05-05T07:26:26.437Z,100992.00
2023-05-05T07:27:29.696Z,100990.41
2023-05-05T07:28:32.597Z,100995.81
2023-05-05T07:29:36.600Z,100992.50
2023-05-05T07:30:40.469Z,100999.22
2023-05-05T07:31:44.023Z,100992.09
2023-05-05T07:32:47.636Z,100993.09
2023-05-05T07:33:50.909Z,100986.84
2023-05-05T07:34:54.328Z,100993.97
2023-05-05T07:35:57.775Z,100985.56
2023-05-05T07:37:01.831Z,100989.31
2023-05-05T07:38:05.105Z,100991.44
2023-05-05T07:39:08.333Z,100994.59
2023-05-05T07:40:12.700Z,100997.56
2023-05-05T07:41:16.551Z,100989.81
2023-05-05T07:42:21.856Z,100999.16
2023-05-05T07:43:25.872Z,100993.50
2023-05-05T07:44:29.743Z,100992.94
2023-05-05T07:45:33.298Z,100991.47
2023-05-05T07:46:37.116Z,100995.91
2023-05-05T07:47:41.473Z,100995.56
2023-05-05T07:48:45.268Z,100992.59
2023-05-05T07:49:49.112Z,100993.56
2023-05-05T07:50:53.597Z,100993.50
2023-05-05T07:51:57.465Z,100998.28
2023-05-05T07:53:10.625Z,100992.19
2023-05-05T07:54:18.322Z,101000.50
2023-05-05T07:55:21.747Z,100994.69
2023-05-05T07:56:25.483Z,100996.09
2023-05-05T07:57:29.505Z,101001.50
2023-05-05T07:58:32.844Z,101001.09
2023-05-05T07:59:37.086Z,100998.19
2023-05-05T08:00:44.757Z,101009.94
2023-05-05T08:01:48.232Z,100995.06
2023-05-05T08:02:52.139Z,101006.53
2023-05-05T08:03:56.115Z,101001.13
2023-05-05T08:04:59.698Z,101006.22
2023-05-05T08:06:12.671Z,101007.91
2023-05-05T08:07:16.138Z,101007.06
2023-05-05T08:08:20.381Z,101016.66
2023-05-05T08:09:23.500Z,101007.91
2023-05-05T08:10:26.946Z,101002.75
2023-05-05T08:11:30.373Z,101003.00
2023-05-05T08:12:34.382Z,101015.47
2023-05-05T08:13:37.590Z,101002.34
2023-05-05T08:14:41.628Z,101008.47
2023-05-05T08:15:45.700Z,101010.78
2023-05-05T08:16:48.747Z,101016.19
2023-05-05T08:17:53.704Z,101011.50
2023-05-05T08:18:57.085Z,101013.75
2023-05-05T08:20:00.858Z,101020.22
2023-05-05T08:21:08.279Z,101017.00
2023-05-05T08:22:11.445Z,101014.16
2023-05-05T08:23:15.036Z,101012.72
2023-05-05T08:24:18.935Z,101007.56
2023-05-05T08:25:22.624Z,101006.06
2023-05-05T08:26:25.963Z,101005.19
2023-05-05T08:27:29.349Z,101008.38
2023-05-05T08:28:33.930Z,101009.31
2023-05-05T08:29:36.994Z,101007.88
2023-05-05T08:30:40.092Z,101008.47
2023-05-05T08:31:43.411Z,101012.81
2023-05-05T08:32:47.754Z,101012.00
2023-05-05T08:33:50.868Z,101011.28
2023-05-05T08:34:54.399Z,101016.19
2023-05-05T08:35:57.409Z,101013.41
2023-05-05T08:37:01.162Z,101013.88
2023-05-05T08:38:04.324Z,101024.47
2023-05-05T08:39:08.288Z,101031.25
2023-05-05T08:40:14.656Z,101023.34
2023-05-05T08:41:23.112Z,101023.22
2023-05-05T08:42:37.031Z,101024.66
2023-05-05T08:43:43.568Z,101027.38
2023-05-05T08:44:47.074Z,101019.50
2023-05-05T08:45:52.310Z,101021.81
2023-05-05T08:46:55.998Z,101025.16
2023-05-05T08:48:06.346Z,101022.41
2023-05-05T08:49:10.399Z,101022.88
2023-05-05T08:50:13.569Z,101025.88
2023-05-05T08:51:20.824Z,101031.84
2023-05-05T08:52:25.300Z,101028.22
2023-05-05T08:53:51.603Z,101031.06
2023-05-05T08:54:58.220Z,101030.25
2023-05-05T08:56:02.122Z,101036.97
2023-05-05T08:57:05.410Z,101032.75
2023-05-05T08:58:08.797Z,101031.47
2023-05-05T08:59:12.513Z,101033.06
2023-05-05T09:00:17.201Z,101036.56
2023-05-05T09:01:22.013Z,101039.03
2023-05-05T09:02:28.933Z,101040.53
2023-05-05T09:03:32.529Z,101035.69
2023-05-05T09:04:35.925Z,101029.22
2023-05-05T09:05:39.666Z,101034.53
2023-05-05T09:06:43.084Z,101034.59
2023-05-05T09:07:47.490Z,101031.81
2023-05-05T09:08:50.561Z,101037.41
2023-05-05T09:09:54.233Z,101036.75
2023-05-05T09:10:57.886Z,101039.19
2023-05-05T09:12:02.403Z,101037.44
2023-05-05T09:13:06.695Z,101033.41
2023-05-05T09:14:10.165Z,101040.19
2023-05-05T09:15:14.512Z,101032.63
2023-05-05T09:16:17.867Z,101033.28
2023-05-05T09:17:26.738Z,101039.91
2023-05-05T09:18:30.243Z,101035.66
2023-05-05T09:19:33.901Z,101038.81
2023-05-05T09:20:38.345Z,101025.53
2023-05-05T09:21:48.786Z,101026.78
2023-05-05T09:22:52.165Z,101026.84
2023-05-05T09:24:09.297Z,101032.91
2023-05-05T09:25:14.912Z,101031.59
2023-05-05T09:26:18.782Z,101031.16
2023-05-05T09:27:22.521Z,101034.56
2023-05-05T09:28:27.059Z,101029.88
2023-05-05T09:29:30.737Z,101037.88
2023-05-05T09:30:34.411Z,101037.88
2023-05-05T09:31:38.683Z,101045.59
2023-05-05T09:32:46.364Z,101034.53
2023-05-05T09:33:49.495Z,101045.50
2023-05-05T09:35:10.988Z,101037.47
2023-05-05T09:36:14.739Z,101042.28
2023-05-05T09:37:31.602Z,101031.75
2023-05-05T09:38:35.729Z,101030.50
2023-05-05T09:39:39.870Z,101029.66
2023-05-05T09:40:54.156Z,101035.28
2023-05-05T09:41:57.851Z,101033.66
2023-05-05T09:43:02.311Z,101030.91
2023-05-05T09:44:05.676Z,101027.16
2023-05-05T09:45:21.322Z,101026.03
2023-05-05T09:46:24.581Z,101015.00
2023-05-05T09:47:35.282Z,101025.72
2023-05-05T09:48:38.743Z,101026.91
2023-05-05T09:49:42.488Z,101021.28
2023-05-05T09:50:45.950Z,101032.81
2023-05-05T09:51:49.381Z,101028.91
2023-05-05T09:53:02.944Z,101028.81
2023-05-05T09:54:05.994Z,101020.69
2023-05-05T09:55:19.135Z,101025.91
2023-05-05T09:56:22.777Z,101030.84
2023-05-05T09:57:27.871Z,101032.25
2023-05-05T09:58:32.199Z,101033.06
2023-05-05T09:59:36.220Z,101033.44
2023-05-05T10:00:40.512Z,101031.41
2023-05-05T10:01:44.375Z,101027.38
2023-05-05T10:02:48.101Z,101034.06
2023-05-05T10:03:56.230Z,101033.94
2023-05-05T10:05:13.314Z,101032.53
2023-05-05T10:06:16.136Z,101034.56
2023-05-05T10:07:28.051Z,101031.63
2023-05-05T10:08:34.677Z,101027.81
2023-05-05T10:09:38.424Z,101028.31
2023-05-05T10:10:50.023Z,101036.53
2023-05-05T10:11:54.155Z,101031.50
2023-05-05T10:12:59.463Z,101024.69
2023-05-05T10:14:04.018Z,101027.84
2023-05-05T10:15:08.441Z,101022.69
2023-05-05T10:16:11.974Z,101033.50
2023-05-05T10:17:15.853Z,101022.44
2023-05-05T10:18:26.989Z,101018.13
2023-05-05T10:19:30.462Z,101016.34
2023-05-05T10:20:34.421Z,101017.16
2023-05-05T10:21:41.478Z,101016.50
2023-05-05T10:22:52.815Z,101010.97
2023-05-05T10:23:59.422Z,101017.19
2023-05-05T10:25:16.976Z,101016.84
2023-05-05T10:26:21.165Z,101009.69
2023-05-05T10:27:25.372Z,101010.34
2023-05-05T10:28:35.080Z,101023.91
2023-05-05T10:30:03.482Z,101007.25
2023-05-05T10:31:16.448Z,101006.16
2023-05-05T10:33:45.985Z,101009.88
2023-05-05T10:34:55.094Z,101005.84
2023-05-05T10:35:58.859Z,101006.09
2023-05-05T10:37:02.151Z,101008.13
2023-05-05T10:38:05.300Z,101011.41
2023-05-05T10:39:10.272Z,101004.00
2023-05-05T10:40:14.405Z,101005.63
2023-05-05T10:41:18.058Z,101006.94
2023-05-05T10:42:21.667Z,101004.81
2023-05-05T10:43:25.121Z,101006.78
2023-05-05T10:44:31.841Z,101009.78
2023-05-05T10:45:35.089Z,101003.44
2023-05-05T10:46:38.777Z,101012.88
2023-05-05T10:47:42.192Z,101003.31
2023-05-05T10:48:53.001Z,101002.97
2023-05-05T10:50:22.913Z,101004.69
2023-05-05T10:51:41.000Z,100995.44
2023-05-05T10:53:19.650Z,100998.31
2023-05-05T10:54:30.445Z,100995.84
2023-05-05T10:55:43.443Z,100996.06
2023-05-05T10:56:50.722Z,101004.47
2023-05-05T10:57:54.797Z,100997.81
2023-05-05T10:59:00.530Z,100995.31
2023-05-05T11:00:05.369Z,100993.03
2023-05-05T11:01:09.714Z,100993.91
2023-05-05T11:02:22.852Z,100996.78
2023-05-05T11:03:26.947Z,100993.81
2023-05-05T11:04:31.020Z,100988.06
2023-05-05T11:05:34.121Z,100998.19
2023-05-05T11:06:37.803Z,100994.00
2023-05-05T11:07:40.766Z,100986.59
2023-05-05T11:08:45.145Z,100988.34
2023-05-05T11:10:15.193Z,100980.38
2023-05-05T11:11:18.725Z,100988.81
2023-05-05T11:12:21.993Z,100991.38
2023-05-05T11:13:25.593Z,100980.16
2023-05-05T11:14:28.414Z,100982.09
2023-05-05T11:15:31.940Z,100978.28
2023-05-05T11:16:46.436Z,100981.78
2023-05-05T11:17:49.845Z,100991.88
2023-05-05T11:18:53.640Z,100973.94
2023-05-05T11:19:57.118Z,100981.56
2023-05-05T11:21:00.476Z,100979.97
2023-05-05T11:22:03.815Z,100982.00
2023-05-05T11:23:07.254Z,100973.41
2023-05-05T11:24:29.747Z,100968.94
2023-05-05T11:25:54.129Z,100974.91
2023-05-05T11:26:58.498Z,100974.06
2023-05-05T11:28:09.113Z,100968.84
2023-05-05T11:29:12.216Z,100969.31
2023-05-05T11:30:15.990Z,100965.66
2023-05-05T11:31:20.133Z,100965.13
2023-05-05T11:32:23.516Z,100961.34
2023-05-05T11:33:30.304Z,100959.03
2023-05-05T11:34:33.826Z,100964.50
2023-05-05T11:35:59.597Z,100960.31
2023-05-05T11:37:04.139Z,100958.16
2023-05-05T11:38:07.471Z,100949.44
2023-05-05T11:39:49.684Z,100950.41
2023-05-05T11:40:56.125Z,100954.22
2023-05-05T11:42:11.497Z,100949.47
2023-05-05T11:43:16.108Z,100942.81
2023-05-05T11:44:21.446Z,100945.69
2023-05-05T11:45:25.799Z,100951.09
2023-05-05T11:46:29.348Z,100951.09
2023-05-05T11:47:33.531Z,100951.50
2023-05-05T11:48:46.645Z,100949.97
2023-05-05T11:49:50.059Z,100946.69
2023-05-05T11:50:53.923Z,100952.31
2023-05-05T11:52:04.200Z,100942.13
2023-05-05T11:53:07.991Z,100948.00
2023-05-05T11:54:12.075Z,100947.78
2023-05-05T11:55:20.375Z,100939.53
2023-05-05T11:56:24.257Z,100942.25
2023-05-05T11:57:30.914Z,100952.94
2023-05-05T11:58:33.977Z,100939.69
2023-05-05T11:59:38.103Z,100948.19
2023-05-05T12:00:42.013Z,100944.25
2023-05-05T12:01:45.444Z,100939.22
2023-05-05T12:02:56.027Z,100943.50
2023-05-05T12:03:59.736Z,100944.34
2023-05-05T12:05:03.630Z,100947.19
2023-05-05T12:06:07.962Z,100938.16
2023-05-05T12:07:19.338Z,100946.50
2023-05-05T12:08:22.911Z,100944.00
2023-05-05T12:09:26.144Z,100946.91
2023-05-05T12:10:30.278Z,100940.53
2023-05-05T12:11:33.663Z,100942.56
2023-05-05T12:12:41.206Z,100946.91
2023-05-05T12:13:44.804Z,100945.88
2023-05-05T12:14:55.020Z,100945.03
2023-05-05T12:16:09.481Z,100939.78
2023-05-05T12:17:12.883Z,100935.78
2023-05-05T12:18:20.111Z,100936.38
2023-05-05T12:19:23.806Z,100944.63
2023-05-05T12:20:34.141Z,100938.97
2023-05-05T12:21:37.185Z,100942.03
2023-05-05T12:22:40.307Z,100932.81
2023-05-05T12:23:44.250Z,100929.06
2023-05-05T12:24:56.309Z,100921.88
2023-05-05T12:25:59.312Z,100926.31
2023-05-05T12:27:09.328Z,100909.66
2023-05-05T12:28:13.208Z,100919.13
2023-05-05T12:29:25.649Z,100913.38
2023-05-05T12:30:29.228Z,100920.03
2023-05-05T12:31:38.903Z,100921.66
2023-05-05T12:32:42.402Z,100916.34
2023-05-05T12:33:45.646Z,100919.03
2023-05-05T12:34:49.839Z,100915.59
2023-05-05T12:35:53.438Z,100916.66